sensor_id;sensor_type;location;lat;lon;timestamp;P1;durP1;ratioP1;P2;durP2;ratioP2
24161;SDS011;12318;51.262;7.066;2023-02-11T00:01:54;74.65;;;36.60;;
24161;SDS011;12318;51.262;7.066;2023-02-11T00:04:23;82.15;;;41.10;;
24161;SDS011;12318;51.262;7.066;2023-02-11T00:06:49;75.65;;;41.72;;
24161;SDS011;12318;51.262;7.066;2023-02-11T00:09:22;71.32;;;40.00;;
24161;SDS011;12318;51.262;7.066;2023-02-11T00:11:50;68.90;;;39.97;;
24161;SDS011;12318;51.262;7.066;2023-02-11T00:14:16;65.07;;;36.50;;
24161;SDS011;12318;51.262;7.066;2023-02-11T00:16:42;66.97;;;37.03;;
24161;SDS011;12318;51.262;7.066;2023-02-11T00:19:08;68.53;;;37.70;;
24161;SDS011;12318;51.262;7.066;2023-02-11T00:21:34;71.60;;;39.88;;
24161;SDS011;12318;51.262;7.066;2023-02-11T00:24:00;66.72;;;36.70;;
24161;SDS011;12318;51.262;7.066;2023-02-11T00:26:27;61.83;;;36.40;;
24161;SDS011;12318;51.262;7.066;2023-02-11T00:28:55;64.50;;;35.75;;
24161;SDS011;12318;51.262;7.066;2023-02-11T00:31:21;62.67;;;36.63;;
24161;SDS011;12318;51.262;7.066;2023-02-11T00:33:48;68.78;;;37.13;;
24161;SDS011;12318;51.262;7.066;2023-02-11T00:36:15;61.72;;;34.65;;
24161;SDS011;12318;51.262;7.066;2023-02-11T00:38:43;55.85;;;32.95;;
24161;SDS011;12318;51.262;7.066;2023-02-11T00:41:10;56.78;;;33.17;;
24161;SDS011;12318;51.262;7.066;2023-02-11T00:43:37;64.93;;;34.92;;
24161;SDS011;12318;51.262;7.066;2023-02-11T00:46:04;69.85;;;37.78;;
24161;SDS011;12318;51.262;7.066;2023-02-11T00:48:30;66.32;;;36.67;;
24161;SDS011;12318;51.262;7.066;2023-02-11T00:50:56;60.63;;;33.78;;
24161;SDS011;12318;51.262;7.066;2023-02-11T00:53:22;56.30;;;34.22;;
24161;SDS011;12318;51.262;7.066;2023-02-11T00:55:47;58.47;;;33.28;;
24161;SDS011;12318;51.262;7.066;2023-02-11T00:58:13;63.60;;;33.55;;
24161;SDS011;12318;51.262;7.066;2023-02-11T01:00:39;57.92;;;34.63;;
24161;SDS011;12318;51.262;7.066;2023-02-11T01:03:04;66.90;;;35.33;;
24161;SDS011;12318;51.262;7.066;2023-02-11T01:05:30;55.20;;;32.72;;
24161;SDS011;12318;51.262;7.066;2023-02-11T01:07:56;61.58;;;34.90;;
24161;SDS011;12318;51.262;7.066;2023-02-11T01:10:23;61.10;;;35.00;;
24161;SDS011;12318;51.262;7.066;2023-02-11T01:12:49;62.22;;;36.13;;
24161;SDS011;12318;51.262;7.066;2023-02-11T01:15:16;58.50;;;34.83;;
24161;SDS011;12318;51.262;7.066;2023-02-11T01:17:43;56.65;;;33.50;;
24161;SDS011;12318;51.262;7.066;2023-02-11T01:20:11;59.20;;;33.35;;
24161;SDS011;12318;51.262;7.066;2023-02-11T01:22:39;51.03;;;30.43;;
24161;SDS011;12318;51.262;7.066;2023-02-11T01:25:05;52.92;;;30.95;;
24161;SDS011;12318;51.262;7.066;2023-02-11T01:27:32;53.95;;;31.83;;
24161;SDS011;12318;51.262;7.066;2023-02-11T01:29:58;55.10;;;35.10;;
24161;SDS011;12318;51.262;7.066;2023-02-11T01:32:24;60.05;;;35.40;;
24161;SDS011;12318;51.262;7.066;2023-02-11T01:34:50;54.70;;;34.45;;
24161;SDS011;12318;51.262;7.066;2023-02-11T01:37:16;57.78;;;34.28;;
24161;SDS011;12318;51.262;7.066;2023-02-11T01:39:42;56.25;;;33.78;;
24161;SDS011;12318;51.262;7.066;2023-02-11T01:42:10;52.38;;;32.05;;
24161;SDS011;12318;51.262;7.066;2023-02-11T01:44:40;57.85;;;35.08;;
24161;SDS011;12318;51.262;7.066;2023-02-11T01:47:06;52.30;;;31.52;;
24161;SDS011;12318;51.262;7.066;2023-02-11T01:49:33;54.05;;;32.72;;
24161;SDS011;12318;51.262;7.066;2023-02-11T01:52:17;62.88;;;36.40;;
24161;SDS011;12318;51.262;7.066;2023-02-11T01:55:00;53.70;;;33.45;;
24161;SDS011;12318;51.262;7.066;2023-02-11T01:57:50;55.30;;;33.15;;
24161;SDS011;12318;51.262;7.066;2023-02-11T02:00:24;56.45;;;32.92;;
24161;SDS011;12318;51.262;7.066;2023-02-11T02:03:06;55.55;;;32.90;;
24161;SDS011;12318;51.262;7.066;2023-02-11T02:11:16;52.75;;;32.88;;
24161;SDS011;12318;51.262;7.066;2023-02-11T02:13:42;55.72;;;31.15;;
24161;SDS011;12318;51.262;7.066;2023-02-11T02:16:13;55.92;;;32.30;;
24161;SDS011;12318;51.262;7.066;2023-02-11T02:32:34;65.00;;;33.33;;
24161;SDS011;12318;51.262;7.066;2023-02-11T02:38:15;63.85;;;35.63;;
24161;SDS011;12318;51.262;7.066;2023-02-11T02:40:51;63.33;;;34.97;;
24161;SDS011;12318;51.262;7.066;2023-02-11T02:43:24;61.28;;;33.25;;
24161;SDS011;12318;51.262;7.066;2023-02-11T02:45:51;63.63;;;33.80;;
24161;SDS011;12318;51.262;7.066;2023-02-11T02:54:15;58.47;;;33.30;;
24161;SDS011;12318;51.262;7.066;2023-02-11T03:05:17;64.60;;;38.47;;
24161;SDS011;12318;51.262;7.066;2023-02-11T03:08:05;62.40;;;36.38;;
24161;SDS011;12318;51.262;7.066;2023-02-11T03:10:48;51.72;;;33.88;;
24161;SDS011;12318;51.262;7.066;2023-02-11T03:13:17;65.15;;;36.15;;
24161;SDS011;12318;51.262;7.066;2023-02-11T03:15:50;57.35;;;35.45;;
24161;SDS011;12318;51.262;7.066;2023-02-11T03:18:19;68.30;;;35.05;;
24161;SDS011;12318;51.262;7.066;2023-02-11T03:20:49;68.07;;;35.30;;
24161;SDS011;12318;51.262;7.066;2023-02-11T03:23:30;68.00;;;39.70;;
24161;SDS011;12318;51.262;7.066;2023-02-11T03:29:00;63.90;;;35.55;;
24161;SDS011;12318;51.262;7.066;2023-02-11T03:40:27;59.33;;;34.80;;
24161;SDS011;12318;51.262;7.066;2023-02-11T03:43:07;76.45;;;40.00;;
24161;SDS011;12318;51.262;7.066;2023-02-11T03:45:41;54.40;;;27.58;;
24161;SDS011;12318;51.262;7.066;2023-02-11T03:48:26;73.15;;;40.40;;
24161;SDS011;12318;51.262;7.066;2023-02-11T03:51:08;72.35;;;37.50;;
24161;SDS011;12318;51.262;7.066;2023-02-11T03:53:36;66.32;;;39.28;;
24161;SDS011;12318;51.262;7.066;2023-02-11T03:56:07;66.28;;;36.95;;
24161;SDS011;12318;51.262;7.066;2023-02-11T04:01:02;57.85;;;33.03;;
24161;SDS011;12318;51.262;7.066;2023-02-11T04:03:29;62.13;;;32.90;;
24161;SDS011;12318;51.262;7.066;2023-02-11T04:05:58;70.45;;;33.97;;
24161;SDS011;12318;51.262;7.066;2023-02-11T04:08:23;65.35;;;34.88;;
24161;SDS011;12318;51.262;7.066;2023-02-11T04:10:49;71.70;;;38.95;;
24161;SDS011;12318;51.262;7.066;2023-02-11T04:13:15;67.03;;;34.88;;
24161;SDS011;12318;51.262;7.066;2023-02-11T04:15:40;78.45;;;39.95;;
24161;SDS011;12318;51.262;7.066;2023-02-11T04:18:06;70.32;;;37.35;;
24161;SDS011;12318;51.262;7.066;2023-02-11T04:20:32;74.18;;;36.47;;
24161;SDS011;12318;51.262;7.066;2023-02-11T04:22:58;68.88;;;37.38;;
24161;SDS011;12318;51.262;7.066;2023-02-11T04:25:24;69.18;;;36.05;;
24161;SDS011;12318;51.262;7.066;2023-02-11T04:27:50;73.15;;;36.75;;
24161;SDS011;12318;51.262;7.066;2023-02-11T04:30:16;85.75;;;40.88;;
24161;SDS011;12318;51.262;7.066;2023-02-11T04:32:42;66.70;;;35.38;;
24161;SDS011;12318;51.262;7.066;2023-02-11T04:35:07;71.97;;;36.38;;
24161;SDS011;12318;51.262;7.066;2023-02-11T04:37:33;70.38;;;37.17;;
24161;SDS011;12318;51.262;7.066;2023-02-11T04:39:59;73.03;;;38.65;;
24161;SDS011;12318;51.262;7.066;2023-02-11T04:42:25;71.00;;;37.88;;
24161;SDS011;12318;51.262;7.066;2023-02-11T04:44:52;75.35;;;36.97;;
24161;SDS011;12318;51.262;7.066;2023-02-11T04:47:17;70.70;;;39.25;;
24161;SDS011;12318;51.262;7.066;2023-02-11T04:49:43;77.03;;;37.50;;
24161;SDS011;12318;51.262;7.066;2023-02-11T04:52:09;67.53;;;34.10;;
24161;SDS011;12318;51.262;7.066;2023-02-11T04:54:35;70.80;;;37.25;;
24161;SDS011;12318;51.262;7.066;2023-02-11T04:57:01;69.35;;;37.10;;
24161;SDS011;12318;51.262;7.066;2023-02-11T04:59:27;73.55;;;37.10;;
24161;SDS011;12318;51.262;7.066;2023-02-11T05:01:53;71.50;;;36.15;;
24161;SDS011;12318;51.262;7.066;2023-02-11T05:04:19;84.30;;;44.65;;
24161;SDS011;12318;51.262;7.066;2023-02-11T05:06:45;74.47;;;37.90;;
24161;SDS011;12318;51.262;7.066;2023-02-11T05:09:11;80.78;;;37.55;;
24161;SDS011;12318;51.262;7.066;2023-02-11T05:11:37;80.55;;;44.80;;
24161;SDS011;12318;51.262;7.066;2023-02-11T05:14:06;76.35;;;42.20;;
24161;SDS011;12318;51.262;7.066;2023-02-11T05:16:32;87.75;;;44.30;;
24161;SDS011;12318;51.262;7.066;2023-02-11T05:18:58;74.38;;;38.65;;
24161;SDS011;12318;51.262;7.066;2023-02-11T05:21:24;77.03;;;40.75;;
24161;SDS011;12318;51.262;7.066;2023-02-11T05:23:49;88.20;;;43.72;;
24161;SDS011;12318;51.262;7.066;2023-02-11T05:26:16;78.70;;;43.45;;
24161;SDS011;12318;51.262;7.066;2023-02-11T05:28:42;102.00;;;48.67;;
24161;SDS011;12318;51.262;7.066;2023-02-11T05:31:09;77.28;;;42.25;;
24161;SDS011;12318;51.262;7.066;2023-02-11T05:33:35;82.28;;;39.70;;
24161;SDS011;12318;51.262;7.066;2023-02-11T05:36:03;77.57;;;40.42;;
24161;SDS011;12318;51.262;7.066;2023-02-11T05:38:31;90.13;;;44.97;;
24161;SDS011;12318;51.262;7.066;2023-02-11T05:40:57;81.55;;;45.00;;
24161;SDS011;12318;51.262;7.066;2023-02-11T05:43:23;95.82;;;45.80;;
24161;SDS011;12318;51.262;7.066;2023-02-11T05:45:49;105.78;;;54.15;;
24161;SDS011;12318;51.262;7.066;2023-02-11T05:48:14;77.53;;;43.10;;
24161;SDS011;12318;51.262;7.066;2023-02-11T05:50:40;72.80;;;40.75;;
24161;SDS011;12318;51.262;7.066;2023-02-11T05:53:06;86.55;;;46.33;;
24161;SDS011;12318;51.262;7.066;2023-02-11T05:55:32;72.60;;;39.90;;
24161;SDS011;12318;51.262;7.066;2023-02-11T05:57:59;75.07;;;45.50;;
24161;SDS011;12318;51.262;7.066;2023-02-11T06:00:24;81.70;;;44.17;;
24161;SDS011;12318;51.262;7.066;2023-02-11T06:02:50;90.85;;;46.17;;
24161;SDS011;12318;51.262;7.066;2023-02-11T06:05:16;101.22;;;51.63;;
24161;SDS011;12318;51.262;7.066;2023-02-11T06:07:47;72.53;;;40.75;;
24161;SDS011;12318;51.262;7.066;2023-02-11T06:11:12;69.85;;;41.42;;
24161;SDS011;12318;51.262;7.066;2023-02-11T06:13:39;82.10;;;45.75;;
24161;SDS011;12318;51.262;7.066;2023-02-11T06:16:05;93.45;;;47.72;;
24161;SDS011;12318;51.262;7.066;2023-02-11T06:18:30;82.93;;;45.25;;
24161;SDS011;12318;51.262;7.066;2023-02-11T06:21:01;76.70;;;40.42;;
24161;SDS011;12318;51.262;7.066;2023-02-11T06:23:31;92.03;;;49.28;;
24161;SDS011;12318;51.262;7.066;2023-02-11T06:26:01;97.57;;;47.33;;
24161;SDS011;12318;51.262;7.066;2023-02-11T06:28:28;70.30;;;39.28;;
24161;SDS011;12318;51.262;7.066;2023-02-11T07:47:21;216.57;;;73.78;;
24161;SDS011;12318;51.262;7.066;2023-02-11T08:28:51;235.85;;;72.32;;
24161;SDS011;12318;51.262;7.066;2023-02-11T08:31:34;298.73;;;69.63;;
24161;SDS011;12318;51.262;7.066;2023-02-11T08:34:01;126.57;;;55.75;;
24161;SDS011;12318;51.262;7.066;2023-02-11T08:36:29;210.85;;;65.57;;
24161;SDS011;12318;51.262;7.066;2023-02-11T08:38:57;284.75;;;73.18;;
24161;SDS011;12318;51.262;7.066;2023-02-11T08:41:27;394.75;;;75.45;;
24161;SDS011;12318;51.262;7.066;2023-02-11T08:43:56;282.85;;;72.30;;
24161;SDS011;12318;51.262;7.066;2023-02-11T08:46:22;121.55;;;53.42;;
24161;SDS011;12318;51.262;7.066;2023-02-11T09:15:25;349.08;;;53.40;;
24161;SDS011;12318;51.262;7.066;2023-02-11T10:25:49;137.05;;;43.42;;
24161;SDS011;12318;51.262;7.066;2023-02-11T10:28:36;170.80;;;56.63;;
24161;SDS011;12318;51.262;7.066;2023-02-11T10:31:14;187.23;;;57.40;;
24161;SDS011;12318;51.262;7.066;2023-02-11T10:36:25;139.43;;;58.17;;
24161;SDS011;12318;51.262;7.066;2023-02-11T10:38:53;183.77;;;62.50;;
24161;SDS011;12318;51.262;7.066;2023-02-11T10:41:20;265.23;;;70.40;;
24161;SDS011;12318;51.262;7.066;2023-02-11T10:43:50;167.90;;;63.35;;
24161;SDS011;12318;51.262;7.066;2023-02-11T10:46:17;128.30;;;53.30;;
24161;SDS011;12318;51.262;7.066;2023-02-11T10:48:47;257.27;;;63.80;;
24161;SDS011;12318;51.262;7.066;2023-02-11T10:51:34;112.22;;;53.33;;
24161;SDS011;12318;51.262;7.066;2023-02-11T10:56:36;142.50;;;61.97;;
24161;SDS011;12318;51.262;7.066;2023-02-11T10:59:06;140.93;;;57.95;;
24161;SDS011;12318;51.262;7.066;2023-02-11T11:01:45;190.65;;;60.58;;
24161;SDS011;12318;51.262;7.066;2023-02-11T11:06:56;123.70;;;56.22;;
24161;SDS011;12318;51.262;7.066;2023-02-11T11:09:46;121.07;;;55.05;;
24161;SDS011;12318;51.262;7.066;2023-02-11T11:12:25;180.65;;;62.88;;
24161;SDS011;12318;51.262;7.066;2023-02-11T11:14:59;149.30;;;58.67;;
24161;SDS011;12318;51.262;7.066;2023-02-11T11:17:26;132.73;;;56.65;;
24161;SDS011;12318;51.262;7.066;2023-02-11T11:20:38;200.73;;;69.65;;
24161;SDS011;12318;51.262;7.066;2023-02-11T11:22:50;145.85;;;58.30;;
24161;SDS011;12318;51.262;7.066;2023-02-11T11:25:20;189.68;;;59.80;;
24161;SDS011;12318;51.262;7.066;2023-02-11T11:27:53;139.15;;;58.47;;
24161;SDS011;12318;51.262;7.066;2023-02-11T11:30:29;146.10;;;62.05;;
24161;SDS011;12318;51.262;7.066;2023-02-11T11:32:58;105.38;;;54.50;;
24161;SDS011;12318;51.262;7.066;2023-02-11T11:35:25;152.98;;;53.90;;
24161;SDS011;12318;51.262;7.066;2023-02-11T11:38:00;138.90;;;58.20;;
24161;SDS011;12318;51.262;7.066;2023-02-11T11:40:28;283.58;;;72.63;;
24161;SDS011;12318;51.262;7.066;2023-02-11T11:43:14;154.88;;;60.15;;
24161;SDS011;12318;51.262;7.066;2023-02-11T11:45:56;300.10;;;70.32;;
24161;SDS011;12318;51.262;7.066;2023-02-11T11:48:25;136.27;;;57.13;;
24161;SDS011;12318;51.262;7.066;2023-02-11T11:50:56;232.48;;;65.88;;
24161;SDS011;12318;51.262;7.066;2023-02-11T11:53:30;245.23;;;61.85;;
24161;SDS011;12318;51.262;7.066;2023-02-11T11:56:13;307.23;;;69.28;;
24161;SDS011;12318;51.262;7.066;2023-02-11T11:58:45;302.65;;;70.75;;
24161;SDS011;12318;51.262;7.066;2023-02-11T12:01:54;134.35;;;53.50;;
24161;SDS011;12318;51.262;7.066;2023-02-11T12:13:02;278.00;;;65.90;;
24161;SDS011;12318;51.262;7.066;2023-02-11T12:18:22;153.75;;;60.60;;
24161;SDS011;12318;51.262;7.066;2023-02-11T12:23:48;156.25;;;63.80;;
24161;SDS011;12318;51.262;7.066;2023-02-11T12:26:17;190.90;;;68.15;;
24161;SDS011;12318;51.262;7.066;2023-02-11T12:36:59;163.57;;;66.85;;
24161;SDS011;12318;51.262;7.066;2023-02-11T12:39:49;115.53;;;58.47;;
24161;SDS011;12318;51.262;7.066;2023-02-11T12:45:33;138.52;;;59.92;;
24161;SDS011;12318;51.262;7.066;2023-02-11T12:53:26;156.63;;;63.80;;
24161;SDS011;12318;51.262;7.066;2023-02-11T12:56:16;154.60;;;61.80;;
24161;SDS011;12318;51.262;7.066;2023-02-11T12:58:45;150.70;;;63.03;;
24161;SDS011;12318;51.262;7.066;2023-02-11T13:01:18;148.52;;;58.65;;
24161;SDS011;12318;51.262;7.066;2023-02-11T13:03:50;140.50;;;59.55;;
24161;SDS011;12318;51.262;7.066;2023-02-11T13:06:32;202.25;;;72.10;;
24161;SDS011;12318;51.262;7.066;2023-02-11T13:09:03;156.50;;;66.05;;
24161;SDS011;12318;51.262;7.066;2023-02-11T13:11:38;163.50;;;64.82;;
24161;SDS011;12318;51.262;7.066;2023-02-11T13:28:41;153.55;;;58.03;;
24161;SDS011;12318;51.262;7.066;2023-02-11T13:31:29;150.40;;;58.50;;
24161;SDS011;12318;51.262;7.066;2023-02-11T13:33:56;160.20;;;70.03;;
24161;SDS011;12318;51.262;7.066;2023-02-11T13:36:23;182.07;;;70.78;;
24161;SDS011;12318;51.262;7.066;2023-02-11T13:38:55;167.32;;;63.55;;
24161;SDS011;12318;51.262;7.066;2023-02-11T13:41:28;138.52;;;46.10;;
24161;SDS011;12318;51.262;7.066;2023-02-11T13:46:46;124.95;;;33.92;;
24161;SDS011;12318;51.262;7.066;2023-02-11T13:52:02;165.15;;;47.80;;
24161;SDS011;12318;51.262;7.066;2023-02-11T13:54:37;173.80;;;61.13;;
24161;SDS011;12318;51.262;7.066;2023-02-11T13:59:45;95.07;;;34.05;;
24161;SDS011;12318;51.262;7.066;2023-02-11T14:11:01;225.90;;;72.78;;
24161;SDS011;12318;51.262;7.066;2023-02-11T14:16:25;161.52;;;63.00;;
24161;SDS011;12318;51.262;7.066;2023-02-11T14:21:28;146.85;;;65.05;;
24161;SDS011;12318;51.262;7.066;2023-02-11T14:27:09;129.73;;;42.97;;
24161;SDS011;12318;51.262;7.066;2023-02-11T14:33:22;131.05;;;59.67;;
24161;SDS011;12318;51.262;7.066;2023-02-11T14:43:39;123.97;;;52.78;;
24161;SDS011;12318;51.262;7.066;2023-02-11T14:46:10;131.13;;;52.53;;
24161;SDS011;12318;51.262;7.066;2023-02-11T14:48:36;107.35;;;46.72;;
24161;SDS011;12318;51.262;7.066;2023-02-11T14:51:08;118.45;;;50.58;;
24161;SDS011;12318;51.262;7.066;2023-02-11T14:53:44;144.40;;;54.40;;
24161;SDS011;12318;51.262;7.066;2023-02-11T14:56:17;116.68;;;48.90;;
24161;SDS011;12318;51.262;7.066;2023-02-11T14:58:51;120.05;;;49.83;;
24161;SDS011;12318;51.262;7.066;2023-02-11T15:01:29;96.05;;;43.72;;
24161;SDS011;12318;51.262;7.066;2023-02-11T15:04:00;129.18;;;50.65;;
24161;SDS011;12318;51.262;7.066;2023-02-11T15:08:59;110.40;;;48.42;;
24161;SDS011;12318;51.262;7.066;2023-02-11T15:11:37;97.70;;;45.22;;
24161;SDS011;12318;51.262;7.066;2023-02-11T15:14:15;90.10;;;41.97;;
24161;SDS011;12318;51.262;7.066;2023-02-11T15:16:58;96.28;;;46.13;;
24161;SDS011;12318;51.262;7.066;2023-02-11T15:19:28;113.15;;;49.85;;
24161;SDS011;12318;51.262;7.066;2023-02-11T15:21:55;121.72;;;50.10;;
24161;SDS011;12318;51.262;7.066;2023-02-11T15:24:23;95.78;;;43.22;;
24161;SDS011;12318;51.262;7.066;2023-02-11T15:26:54;92.75;;;44.13;;
24161;SDS011;12318;51.262;7.066;2023-02-11T15:29:33;119.37;;;52.77;;
24161;SDS011;12318;51.262;7.066;2023-02-11T15:32:05;109.05;;;49.53;;
24161;SDS011;12318;51.262;7.066;2023-02-11T15:34:52;119.78;;;51.38;;
24161;SDS011;12318;51.262;7.066;2023-02-11T15:37:20;125.25;;;52.28;;
24161;SDS011;12318;51.262;7.066;2023-02-11T15:39:47;134.70;;;56.15;;
24161;SDS011;12318;51.262;7.066;2023-02-11T15:42:17;105.43;;;50.92;;
24161;SDS011;12318;51.262;7.066;2023-02-11T15:44:43;127.07;;;54.33;;
24161;SDS011;12318;51.262;7.066;2023-02-11T15:47:10;103.70;;;47.20;;
24161;SDS011;12318;51.262;7.066;2023-02-11T15:49:37;105.57;;;47.22;;
24161;SDS011;12318;51.262;7.066;2023-02-11T15:52:08;113.53;;;49.78;;
24161;SDS011;12318;51.262;7.066;2023-02-11T15:54:33;125.28;;;53.28;;
24161;SDS011;12318;51.262;7.066;2023-02-11T15:57:01;88.10;;;44.90;;
24161;SDS011;12318;51.262;7.066;2023-02-11T15:59:33;101.93;;;47.15;;
24161;SDS011;12318;51.262;7.066;2023-02-11T16:02:27;105.40;;;48.00;;
24161;SDS011;12318;51.262;7.066;2023-02-11T16:04:54;121.75;;;52.70;;
24161;SDS011;12318;51.262;7.066;2023-02-11T16:12:55;123.47;;;51.47;;
24161;SDS011;12318;51.262;7.066;2023-02-11T16:18:01;91.20;;;45.78;;
24161;SDS011;12318;51.262;7.066;2023-02-11T16:20:36;124.82;;;53.50;;
24161;SDS011;12318;51.262;7.066;2023-02-11T16:23:02;140.38;;;56.55;;
24161;SDS011;12318;51.262;7.066;2023-02-11T16:25:29;141.73;;;59.47;;
24161;SDS011;12318;51.262;7.066;2023-02-11T16:27:58;154.25;;;60.95;;
24161;SDS011;12318;51.262;7.066;2023-02-11T16:32:59;153.88;;;61.50;;
24161;SDS011;12318;51.262;7.066;2023-02-11T16:35:25;169.50;;;64.57;;
24161;SDS011;12318;51.262;7.066;2023-02-11T16:37:52;141.25;;;58.28;;
24161;SDS011;12318;51.262;7.066;2023-02-11T16:40:19;156.82;;;63.85;;
24161;SDS011;12318;51.262;7.066;2023-02-11T16:42:45;162.73;;;63.92;;
24161;SDS011;12318;51.262;7.066;2023-02-11T16:45:10;158.95;;;63.67;;
24161;SDS011;12318;51.262;7.066;2023-02-11T16:47:36;153.43;;;61.90;;
24161;SDS011;12318;51.262;7.066;2023-02-11T16:50:09;145.18;;;62.10;;
24161;SDS011;12318;51.262;7.066;2023-02-11T16:52:43;132.05;;;58.38;;
24161;SDS011;12318;51.262;7.066;2023-02-11T16:55:10;128.55;;;55.05;;
24161;SDS011;12318;51.262;7.066;2023-02-11T16:57:36;141.98;;;60.63;;
24161;SDS011;12318;51.262;7.066;2023-02-11T17:00:03;179.02;;;68.32;;
24161;SDS011;12318;51.262;7.066;2023-02-11T17:02:32;131.80;;;59.85;;
24161;SDS011;12318;51.262;7.066;2023-02-11T17:05:00;106.55;;;52.78;;
24161;SDS011;12318;51.262;7.066;2023-02-11T17:07:28;151.05;;;63.10;;
24161;SDS011;12318;51.262;7.066;2023-02-11T17:09:54;137.32;;;58.88;;
24161;SDS011;12318;51.262;7.066;2023-02-11T17:12:20;130.88;;;57.42;;
24161;SDS011;12318;51.262;7.066;2023-02-11T17:14:49;131.75;;;58.00;;
24161;SDS011;12318;51.262;7.066;2023-02-11T17:17:16;137.07;;;59.53;;
24161;SDS011;12318;51.262;7.066;2023-02-11T17:19:41;118.53;;;55.85;;
24161;SDS011;12318;51.262;7.066;2023-02-11T17:22:08;150.82;;;61.35;;
24161;SDS011;12318;51.262;7.066;2023-02-11T17:24:35;126.63;;;56.53;;
24161;SDS011;12318;51.262;7.066;2023-02-11T17:27:01;126.03;;;57.67;;
24161;SDS011;12318;51.262;7.066;2023-02-11T17:29:27;142.25;;;63.10;;
24161;SDS011;12318;51.262;7.066;2023-02-11T17:31:53;153.50;;;64.45;;
24161;SDS011;12318;51.262;7.066;2023-02-11T17:34:19;132.55;;;60.05;;
24161;SDS011;12318;51.262;7.066;2023-02-11T17:36:46;158.35;;;66.43;;
24161;SDS011;12318;51.262;7.066;2023-02-11T17:39:11;156.32;;;64.38;;
24161;SDS011;12318;51.262;7.066;2023-02-11T17:41:38;119.65;;;57.20;;
24161;SDS011;12318;51.262;7.066;2023-02-11T17:44:04;138.43;;;62.17;;
24161;SDS011;12318;51.262;7.066;2023-02-11T17:46:31;173.73;;;67.35;;
24161;SDS011;12318;51.262;7.066;2023-02-11T17:48:58;131.43;;;60.75;;
24161;SDS011;12318;51.262;7.066;2023-02-11T17:51:35;133.43;;;63.88;;
24161;SDS011;12318;51.262;7.066;2023-02-11T17:54:03;175.25;;;71.47;;
24161;SDS011;12318;51.262;7.066;2023-02-11T17:56:32;149.98;;;65.97;;
24161;SDS011;12318;51.262;7.066;2023-02-11T17:58:59;176.18;;;73.90;;
24161;SDS011;12318;51.262;7.066;2023-02-11T18:01:26;174.80;;;72.20;;
24161;SDS011;12318;51.262;7.066;2023-02-11T18:03:53;165.57;;;70.43;;
24161;SDS011;12318;51.262;7.066;2023-02-11T18:06:18;175.02;;;70.85;;
24161;SDS011;12318;51.262;7.066;2023-02-11T18:08:45;167.40;;;70.43;;
24161;SDS011;12318;51.262;7.066;2023-02-11T18:11:11;189.30;;;73.07;;
24161;SDS011;12318;51.262;7.066;2023-02-11T18:13:39;176.43;;;72.25;;
24161;SDS011;12318;51.262;7.066;2023-02-11T18:16:05;169.60;;;68.57;;
24161;SDS011;12318;51.262;7.066;2023-02-11T18:18:32;170.38;;;68.72;;
24161;SDS011;12318;51.262;7.066;2023-02-11T18:20:59;169.10;;;69.70;;
24161;SDS011;12318;51.262;7.066;2023-02-11T18:23:28;164.65;;;69.93;;
24161;SDS011;12318;51.262;7.066;2023-02-11T18:25:54;169.43;;;67.55;;
24161;SDS011;12318;51.262;7.066;2023-02-11T18:28:20;178.13;;;70.00;;
24161;SDS011;12318;51.262;7.066;2023-02-11T18:30:46;150.93;;;62.75;;
24161;SDS011;12318;51.262;7.066;2023-02-11T18:33:11;184.07;;;70.75;;
24161;SDS011;12318;51.262;7.066;2023-02-11T18:35:39;170.43;;;69.22;;
24161;SDS011;12318;51.262;7.066;2023-02-11T18:38:05;125.65;;;58.65;;
24161;SDS011;12318;51.262;7.066;2023-02-11T18:40:31;149.07;;;63.65;;
24161;SDS011;12318;51.262;7.066;2023-02-11T18:42:57;121.00;;;58.97;;
24161;SDS011;12318;51.262;7.066;2023-02-11T18:45:23;155.63;;;66.25;;
24161;SDS011;12318;51.262;7.066;2023-02-11T18:47:52;120.22;;;57.88;;
24161;SDS011;12318;51.262;7.066;2023-02-11T18:50:18;159.70;;;68.13;;
24161;SDS011;12318;51.262;7.066;2023-02-11T18:52:46;148.20;;;65.80;;
24161;SDS011;12318;51.262;7.066;2023-02-11T18:55:12;149.68;;;64.50;;
24161;SDS011;12318;51.262;7.066;2023-02-11T18:57:38;146.48;;;64.30;;
24161;SDS011;12318;51.262;7.066;2023-02-11T19:00:05;150.68;;;64.45;;
24161;SDS011;12318;51.262;7.066;2023-02-11T19:02:34;147.70;;;62.60;;
24161;SDS011;12318;51.262;7.066;2023-02-11T19:05:01;126.35;;;60.45;;
24161;SDS011;12318;51.262;7.066;2023-02-11T19:07:27;130.80;;;59.60;;
24161;SDS011;12318;51.262;7.066;2023-02-11T19:09:52;115.25;;;55.63;;
24161;SDS011;12318;51.262;7.066;2023-02-11T19:12:18;118.10;;;58.00;;
24161;SDS011;12318;51.262;7.066;2023-02-11T19:14:44;129.50;;;64.72;;
24161;SDS011;12318;51.262;7.066;2023-02-11T19:17:10;146.20;;;65.03;;
24161;SDS011;12318;51.262;7.066;2023-02-11T19:19:37;124.18;;;57.63;;
24161;SDS011;12318;51.262;7.066;2023-02-11T19:22:03;151.82;;;66.80;;
24161;SDS011;12318;51.262;7.066;2023-02-11T19:24:32;121.05;;;59.65;;
24161;SDS011;12318;51.262;7.066;2023-02-11T19:27:00;127.53;;;60.00;;
24161;SDS011;12318;51.262;7.066;2023-02-11T19:29:27;124.30;;;59.15;;
24161;SDS011;12318;51.262;7.066;2023-02-11T19:31:53;109.63;;;57.20;;
24161;SDS011;12318;51.262;7.066;2023-02-11T19:34:19;128.35;;;61.63;;
24161;SDS011;12318;51.262;7.066;2023-02-11T19:36:45;114.43;;;55.30;;
24161;SDS011;12318;51.262;7.066;2023-02-11T19:39:12;124.97;;;59.97;;
24161;SDS011;12318;51.262;7.066;2023-02-11T19:41:38;124.65;;;60.38;;
24161;SDS011;12318;51.262;7.066;2023-02-11T19:44:04;121.82;;;59.15;;
24161;SDS011;12318;51.262;7.066;2023-02-11T19:46:33;89.63;;;48.28;;
24161;SDS011;12318;51.262;7.066;2023-02-11T19:49:01;153.50;;;61.03;;
24161;SDS011;12318;51.262;7.066;2023-02-11T19:51:27;130.85;;;58.00;;
24161;SDS011;12318;51.262;7.066;2023-02-11T19:53:53;130.57;;;58.80;;
24161;SDS011;12318;51.262;7.066;2023-02-11T19:56:19;131.90;;;58.92;;
24161;SDS011;12318;51.262;7.066;2023-02-11T19:58:46;95.25;;;50.90;;
24161;SDS011;12318;51.262;7.066;2023-02-11T20:01:14;101.80;;;52.80;;
24161;SDS011;12318;51.262;7.066;2023-02-11T20:03:41;105.43;;;54.08;;
24161;SDS011;12318;51.262;7.066;2023-02-11T20:06:08;140.18;;;59.35;;
24161;SDS011;12318;51.262;7.066;2023-02-11T20:08:36;111.75;;;54.10;;
24161;SDS011;12318;51.262;7.066;2023-02-11T20:13:36;180.90;;;67.88;;
24161;SDS011;12318;51.262;7.066;2023-02-11T20:16:05;152.23;;;64.97;;
24161;SDS011;12318;51.262;7.066;2023-02-11T20:18:32;92.07;;;49.70;;
24161;SDS011;12318;51.262;7.066;2023-02-11T20:20:58;134.90;;;60.70;;
24161;SDS011;12318;51.262;7.066;2023-02-11T20:23:29;93.45;;;50.55;;
24161;SDS011;12318;51.262;7.066;2023-02-11T20:25:55;93.07;;;51.92;;
24161;SDS011;12318;51.262;7.066;2023-02-11T20:28:21;112.38;;;54.47;;
24161;SDS011;12318;51.262;7.066;2023-02-11T20:30:56;101.97;;;52.03;;
24161;SDS011;12318;51.262;7.066;2023-02-11T20:33:23;94.50;;;52.92;;
24161;SDS011;12318;51.262;7.066;2023-02-11T20:35:53;94.57;;;51.25;;